sensor_id;sensor_type;location;lat;lon;timestamp;pressure;altitude;pressure_sealevel;temperature;humidity
13867;BME280;7003;46.982;15.248;2023-05-07T00:00:38;97213.34;;;14.06;100.00
13867;BME280;7003;46.982;15.248;2023-05-07T00:03:09;97209.91;;;14.05;100.00
13867;BME280;7003;46.982;15.248;2023-05-07T00:05:37;97213.34;;;14.06;100.00
13867;BME280;7003;46.982;15.248;2023-05-07T00:08:04;97214.91;;;13.91;100.00
13867;BME280;7003;46.982;15.248;2023-05-07T00:10:32;97206.72;;;13.84;100.00
13867;BME280;7003;46.982;15.248;2023-05-07T00:13:00;97202.75;;;13.78;100.00
13867;BME280;7003;46.982;15.248;2023-05-07T00:15:28;97210.34;;;13.92;100.00
13867;BME280;7003;46.982;15.248;2023-05-07T00:17:57;97209.56;;;13.91;100.00
13867;BME280;7003;46.982;15.248;2023-05-07T00:20:25;97208.50;;;13.96;100.00
13867;BME280;7003;46.982;15.248;2023-05-07T00:22:54;97203.16;;;13.96;100.00
13867;BME280;7003;46.982;15.248;2023-05-07T00:25:24;97206.19;;;13.94;100.00
13867;BME280;7003;46.982;15.248;2023-05-07T00:27:54;97202.22;;;13.88;100.00
13867;BME280;7003;46.982;15.248;2023-05-07T00:30:22;97205.59;;;13.85;100.00
13867;BME280;7003;46.982;15.248;2023-05-07T00:32:49;97199.19;;;13.74;100.00
13867;BME280;7003;46.982;15.248;2023-05-07T00:35:19;97195.66;;;13.70;100.00
13867;BME280;7003;46.982;15.248;2023-05-07T00:37:48;97200.03;;;13.62;100.00
13867;BME280;7003;46.982;15.248;2023-05-07T00:40:18;97191.00;;;13.67;100.00
13867;BME280;7003;46.982;15.248;2023-05-07T00:42:45;97182.28;;;13.54;100.00
13867;BME280;7003;46.982;15.248;2023-05-07T00:45:12;97181.88;;;13.40;100.00
13867;BME280;7003;46.982;15.248;2023-05-07T00:47:41;97185.72;;;13.27;100.00
13867;BME280;7003;46.982;15.248;2023-05-07T00:50:09;97194.97;;;13.29;100.00
13867;BME280;7003;46.982;15.248;2023-05-07T00:52:38;97186.13;;;13.13;100.00
13867;BME280;7003;46.982;15.248;2023-05-07T00:55:09;97184.25;;;13.01;100.00
13867;BME280;7003;46.982;15.248;2023-05-07T00:57:41;97187.09;;;13.08;100.00
13867;BME280;7003;46.982;15.248;2023-05-07T01:00:12;97174.59;;;13.25;100.00
13867;BME280;7003;46.982;15.248;2023-05-07T01:02:43;97182.38;;;13.30;100.00
13867;BME280;7003;46.982;15.248;2023-05-07T01:05:20;97182.72;;;13.28;100.00
13867;BME280;7003;46.982;15.248;2023-05-07T01:07:50;97193.56;;;13.20;100.00
13867;BME280;7003;46.982;15.248;2023-05-07T01:10:25;97184.69;;;13.03;100.00
13867;BME280;7003;46.982;15.248;2023-05-07T01:12:55;97184.41;;;12.81;100.00
13867;BME280;7003;46.982;15.248;2023-05-07T01:15:25;97179.94;;;12.97;100.00
13867;BME280;7003;46.982;15.248;2023-05-07T01:17:56;97186.50;;;12.87;100.00
13867;BME280;7003;46.982;15.248;2023-05-07T01:20:25;97177.50;;;12.92;100.00
13867;BME280;7003;46.982;15.248;2023-05-07T01:22:54;97167.03;;;12.87;100.00
13867;BME280;7003;46.982;15.248;2023-05-07T01:25:24;97177.63;;;12.83;100.00
13867;BME280;7003;46.982;15.248;2023-05-07T01:27:51;97174.97;;;12.83;100.00
13867;BME280;7003;46.982;15.248;2023-05-07T01:30:21;97163.56;;;12.58;100.00
13867;BME280;7003;46.982;15.248;2023-05-07T01:32:52;97169.44;;;12.64;100.00
13867;BME280;7003;46.982;15.248;2023-05-07T01:35:24;97176.16;;;12.46;100.00
13867;BME280;7003;46.982;15.248;2023-05-07T01:37:56;97181.50;;;12.46;100.00
13867;BME280;7003;46.982;15.248;2023-05-07T01:40:27;97176.50;;;12.44;100.00
13867;BME280;7003;46.982;15.248;2023-05-07T01:42:54;97185.06;;;12.38;100.00
13867;BME280;7003;46.982;15.248;2023-05-07T01:45:21;97179.25;;;12.48;100.00
13867;BME280;7003;46.982;15.248;2023-05-07T01:47:51;97173.25;;;12.51;100.00
13867;BME280;7003;46.982;15.248;2023-05-07T01:50:37;97169.41;;;12.36;100.00
13867;BME280;7003;46.982;15.248;2023-05-07T01:53:11;97176.50;;;12.20;100.00
13867;BME280;7003;46.982;15.248;2023-05-07T01:55:39;97182.50;;;12.29;100.00
13867;BME280;7003;46.982;15.248;2023-05-07T01:58:09;97176.06;;;12.18;100.00
13867;BME280;7003;46.982;15.248;2023-05-07T02:00:37;97168.50;;;12.20;100.00
13867;BME280;7003;46.982;15.248;2023-05-07T02:03:04;97165.19;;;12.23;100.00
13867;BME280;7003;46.982;15.248;2023-05-07T02:05:31;97176.41;;;12.28;100.00
13867;BME280;7003;46.982;15.248;2023-05-07T02:07:58;97175.84;;;12.23;100.00
13867;BME280;7003;46.982;15.248;2023-05-07T02:10:30;97175.84;;;12.23;100.00
13867;BME280;7003;46.982;15.248;2023-05-07T02:13:00;97173.72;;;12.16;100.00
13867;BME280;7003;46.982;15.248;2023-05-07T02:15:29;97173.53;;;12.21;100.00
13867;BME280;7003;46.982;15.248;2023-05-07T02:17:59;97173.28;;;12.02;100.00
13867;BME280;7003;46.982;15.248;2023-05-07T02:20:27;97173.41;;;12.06;100.00
13867;BME280;7003;46.982;15.248;2023-05-07T02:22:54;97176.06;;;11.93;100.00
13867;BME280;7003;46.982;15.248;2023-05-07T02:25:24;97180.28;;;11.94;100.00
13867;BME280;7003;46.982;15.248;2023-05-07T02:27:53;97176.50;;;11.95;100.00
13867;BME280;7003;46.982;15.248;2023-05-07T02:30:22;97183.81;;;11.86;100.00
13867;BME280;7003;46.982;15.248;2023-05-07T02:32:50;97184.16;;;11.85;100.00
13867;BME280;7003;46.982;15.248;2023-05-07T02:35:20;97183.34;;;11.72;100.00
13867;BME280;7003;46.982;15.248;2023-05-07T02:37:49;97177.56;;;11.70;100.00
13867;BME280;7003;46.982;15.248;2023-05-07T02:40:16;97181.44;;;11.73;100.00
13867;BME280;7003;46.982;15.248;2023-05-07T02:42:45;97178.44;;;11.62;100.00
13867;BME280;7003;46.982;15.248;2023-05-07T02:45:14;97171.09;;;11.59;100.00
13867;BME280;7003;46.982;15.248;2023-05-07T02:47:41;97175.44;;;11.64;100.00
13867;BME280;7003;46.982;15.248;2023-05-07T02:50:08;97177.56;;;11.70;100.00
13867;BME280;7003;46.982;15.248;2023-05-07T02:52:35;97177.00;;;11.65;100.00
13867;BME280;7003;46.982;15.248;2023-05-07T02:55:06;97178.00;;;11.60;100.00
13867;BME280;7003;46.982;15.248;2023-05-07T02:57:35;97173.44;;;11.61;100.00
13867;BME280;7003;46.982;15.248;2023-05-07T03:00:11;97176.91;;;11.61;100.00
13867;BME280;7003;46.982;15.248;2023-05-07T03:02:39;97178.78;;;11.61;100.00
13867;BME280;7003;46.982;15.248;2023-05-07T03:05:07;97176.75;;;11.57;100.00
13867;BME280;7003;46.982;15.248;2023-05-07T03:07:37;97181.31;;;11.69;100.00
13867;BME280;7003;46.982;15.248;2023-05-07T03:10:05;97182.41;;;11.56;100.00
13867;BME280;7003;46.982;15.248;2023-05-07T03:12:32;97190.22;;;11.28;100.00
13867;BME280;7003;46.982;15.248;2023-05-07T03:15:03;97188.22;;;11.25;100.00
13867;BME280;7003;46.982;15.248;2023-05-07T03:17:31;97189.66;;;11.23;100.00
13867;BME280;7003;46.982;15.248;2023-05-07T03:20:02;97189.53;;;11.19;100.00
13867;BME280;7003;46.982;15.248;2023-05-07T03:22:33;97188.28;;;11.16;100.00
13867;BME280;7003;46.982;15.248;2023-05-07T03:25:01;97186.16;;;11.10;100.00
13867;BME280;7003;46.982;15.248;2023-05-07T03:27:29;97186.16;;;11.10;100.00
13867;BME280;7003;46.982;15.248;2023-05-07T03:29:57;97182.72;;;11.09;100.00
13867;BME280;7003;46.982;15.248;2023-05-07T03:32:25;97190.13;;;11.04;100.00
13867;BME280;7003;46.982;15.248;2023-05-07T03:34:53;97185.97;;;10.94;100.00
13867;BME280;7003;46.982;15.248;2023-05-07T03:37:23;97195.78;;;11.02;100.00
13867;BME280;7003;46.982;15.248;2023-05-07T03:39:51;97188.63;;;10.94;100.00
13867;BME280;7003;46.982;15.248;2023-05-07T03:42:20;97192.41;;;10.93;100.00
13867;BME280;7003;46.982;15.248;2023-05-07T03:44:48;97195.19;;;10.97;100.00
13867;BME280;7003;46.982;15.248;2023-05-07T03:47:18;97198.22;;;11.07;100.00
13867;BME280;7003;46.982;15.248;2023-05-07T03:49:48;97200.44;;;11.05;100.00
13867;BME280;7003;46.982;15.248;2023-05-07T03:52:16;97200.78;;;11.04;100.00
13867;BME280;7003;46.982;15.248;2023-05-07T03:54:50;97204.78;;;11.10;100.00
13867;BME280;7003;46.982;15.248;2023-05-07T03:57:21;97205.25;;;11.12;100.00
13867;BME280;7003;46.982;15.248;2023-05-07T03:59:52;97209.31;;;11.30;100.00
13867;BME280;7003;46.982;15.248;2023-05-07T04:02:22;97214.66;;;11.09;100.00
13867;BME280;7003;46.982;15.248;2023-05-07T04:04:51;97217.25;;;11.18;100.00
13867;BME280;7003;46.982;15.248;2023-05-07T04:07:21;97212.97;;;11.05;100.00
13867;BME280;7003;46.982;15.248;2023-05-07T04:09:51;97224.75;;;10.83;100.00
13867;BME280;7003;46.982;15.248;2023-05-07T04:12:22;97228.34;;;10.78;100.00
13867;BME280;7003;46.982;15.248;2023-05-07T04:14:50;97227.13;;;10.76;100.00
13867;BME280;7003;46.982;15.248;2023-05-07T04:17:21;97221.47;;;10.77;100.00
13867;BME280;7003;46.982;15.248;2023-05-07T04:19:50;97226.59;;;11.03;100.00
13867;BME280;7003;46.982;15.248;2023-05-07T04:22:19;97227.00;;;10.93;100.00
13867;BME280;7003;46.982;15.248;2023-05-07T04:24:47;97228.66;;;10.77;100.00
13867;BME280;7003;46.982;15.248;2023-05-07T04:27:17;97228.09;;;10.71;100.00
13867;BME280;7003;46.982;15.248;2023-05-07T04:29:46;97225.06;;;10.82;100.00
13867;BME280;7003;46.982;15.248;2023-05-07T04:32:14;97235.19;;;10.88;100.00
13867;BME280;7003;46.982;15.248;2023-05-07T04:34:45;97235.50;;;10.87;100.00
13867;BME280;7003;46.982;15.248;2023-05-07T04:37:14;97241.03;;;10.82;100.00
13867;BME280;7003;46.982;15.248;2023-05-07T04:39:42;97237.94;;;10.92;100.00
13867;BME280;7003;46.982;15.248;2023-05-07T04:42:15;97240.03;;;10.86;100.00
13867;BME280;7003;46.982;15.248;2023-05-07T04:44:46;97237.97;;;11.12;100.00
13867;BME280;7003;46.982;15.248;2023-05-07T04:47:14;97238.44;;;11.14;100.00
13867;BME280;7003;46.982;15.248;2023-05-07T04:49:44;97240.16;;;11.31;100.00
13867;BME280;7003;46.982;15.248;2023-05-07T04:52:13;97238.19;;;11.40;100.00
13867;BME280;7003;46.982;15.248;2023-05-07T04:54:44;97234.66;;;11.48;100.00
13867;BME280;7003;46.982;15.248;2023-05-07T04:57:13;97236.16;;;11.58;100.00
13867;BME280;7003;46.982;15.248;2023-05-07T04:59:43;97237.72;;;11.71;100.00
13867;BME280;7003;46.982;15.248;2023-05-07T05:02:12;97241.56;;;11.82;100.00
13867;BME280;7003;46.982;15.248;2023-05-07T05:04:43;97240.03;;;11.93;100.00
13867;BME280;7003;46.982;15.248;2023-05-07T05:07:11;97240.63;;;12.11;100.00
13867;BME280;7003;46.982;15.248;2023-05-07T05:09:40;97246.63;;;12.32;100.00
13867;BME280;7003;46.982;15.248;2023-05-07T05:12:08;97248.41;;;12.53;100.00
13867;BME280;7003;46.982;15.248;2023-05-07T05:14:36;97248.06;;;12.66;100.00
13867;BME280;7003;46.982;15.248;2023-05-07T05:17:04;97251.94;;;12.81;100.00
13867;BME280;7003;46.982;15.248;2023-05-07T05:19:35;97250.00;;;12.94;100.00
13867;BME280;7003;46.982;15.248;2023-05-07T05:22:03;97254.56;;;12.93;100.00
13867;BME280;7003;46.982;15.248;2023-05-07T05:24:31;97257.91;;;13.15;100.00
13867;BME280;7003;46.982;15.248;2023-05-07T05:27:01;97254.66;;;13.21;100.00
13867;BME280;7003;46.982;15.248;2023-05-07T05:29:30;97261.94;;;13.36;100.00
13867;BME280;7003;46.982;15.248;2023-05-07T05:31:57;97264.28;;;13.66;100.00
13867;BME280;7003;46.982;15.248;2023-05-07T05:34:27;97268.00;;;13.77;100.00
13867;BME280;7003;46.982;15.248;2023-05-07T05:37:00;97271.31;;;14.02;100.00
13867;BME280;7003;46.982;15.248;2023-05-07T05:39:28;97274.00;;;14.17;100.00
13867;BME280;7003;46.982;15.248;2023-05-07T05:41:55;97269.00;;;14.32;100.00
13867;BME280;7003;46.982;15.248;2023-05-07T05:44:26;97277.03;;;14.32;100.00
13867;BME280;7003;46.982;15.248;2023-05-07T05:46:54;97276.28;;;14.47;100.00
13867;BME280;7003;46.982;15.248;2023-05-07T05:49:25;97273.03;;;14.73;100.00
13867;BME280;7003;46.982;15.248;2023-05-07T05:51:53;97277.09;;;14.82;100.00
13867;BME280;7003;46.982;15.248;2023-05-07T05:54:25;97279.13;;;15.05;100.00
13867;BME280;7003;46.982;15.248;2023-05-07T05:56:55;97276.75;;;15.38;100.00
13867;BME280;7003;46.982;15.248;2023-05-07T05:59:26;97278.78;;;15.25;100.00
13867;BME280;7003;46.982;15.248;2023-05-07T06:01:56;97278.16;;;15.32;100.00
13867;BME280;7003;46.982;15.248;2023-05-07T06:04:24;97271.13;;;15.62;100.00
13867;BME280;7003;46.982;15.248;2023-05-07T06:06:51;97271.31;;;15.73;100.00
13867;BME280;7003;46.982;15.248;2023-05-07T06:09:19;97270.66;;;15.79;100.00
13867;BME280;7003;46.982;15.248;2023-05-07T06:11:48;97268.03;;;16.02;100.00
13867;BME280;7003;46.982;15.248;2023-05-07T06:14:16;97266.53;;;16.05;100.00
13867;BME280;7003;46.982;15.248;2023-05-07T06:16:46;97270.84;;;16.32;100.00
13867;BME280;7003;46.982;15.248;2023-05-07T06:19:14;97271.13;;;16.27;100.00
13867;BME280;7003;46.982;15.248;2023-05-07T06:21:44;97272.63;;;16.47;100.00
13867;BME280;7003;46.982;15.248;2023-05-07T06:24:11;97279.91;;;16.70;100.00
13867;BME280;7003;46.982;15.248;2023-05-07T06:26:40;97268.09;;;17.04;100.00
13867;BME280;7003;46.982;15.248;2023-05-07T06:29:09;97273.78;;;17.29;100.00
13867;BME280;7003;46.982;15.248;2023-05-07T06:31:39;97271.00;;;17.52;100.00
13867;BME280;7003;46.982;15.248;2023-05-07T06:34:07;97279.25;;;17.66;100.00
13867;BME280;7003;46.982;15.248;2023-05-07T06:36:35;97273.56;;;17.71;100.00
13867;BME280;7003;46.982;15.248;2023-05-07T06:39:02;97279.53;;;17.91;100.00
13867;BME280;7003;46.982;15.248;2023-05-07T06:41:32;97286.31;;;18.15;100.00
13867;BME280;7003;46.982;15.248;2023-05-07T06:44:04;97292.69;;;18.43;100.00
13867;BME280;7003;46.982;15.248;2023-05-07T06:46:33;97290.91;;;17.77;100.00
13867;BME280;7003;46.982;15.248;2023-05-07T06:49:01;97297.06;;;17.78;100.00
13867;BME280;7003;46.982;15.248;2023-05-07T06:51:28;97293.47;;;17.63;100.00
13867;BME280;7003;46.982;15.248;2023-05-07T06:53:59;97292.56;;;17.55;100.00
13867;BME280;7003;46.982;15.248;2023-05-07T06:56:27;97297.31;;;17.65;100.00
13867;BME280;7003;46.982;15.248;2023-05-07T06:58:54;97294.66;;;17.69;100.00
13867;BME280;7003;46.982;15.248;2023-05-07T07:01:22;97298.38;;;18.31;100.00
13867;BME280;7003;46.982;15.248;2023-05-07T07:03:52;97299.81;;;18.62;100.00
13867;BME280;7003;46.982;15.248;2023-05-07T07:06:22;97290.38;;;18.90;100.00
13867;BME280;7003;46.982;15.248;2023-05-07T07:08:52;97297.94;;;19.32;100.00
13867;BME280;7003;46.982;15.248;2023-05-07T07:11:22;97300.78;;;19.53;100.00
13867;BME280;7003;46.982;15.248;2023-05-07T07:13:51;97303.53;;;19.64;100.00
13867;BME280;7003;46.982;15.248;2023-05-07T07:16:20;97301.44;;;18.74;100.00
13867;BME280;7003;46.982;15.248;2023-05-07T07:18:51;97294.59;;;19.52;100.00
13867;BME280;7003;46.982;15.248;2023-05-07T07:21:37;97297.06;;;20.00;100.00
13867;BME280;7003;46.982;15.248;2023-05-07T07:24:23;97305.88;;;19.76;100.00
13867;BME280;7003;46.982;15.248;2023-05-07T07:27:09;97305.34;;;19.42;100.00
13867;BME280;7003;46.982;15.248;2023-05-07T07:29:55;97305.66;;;19.37;100.00
13867;BME280;7003;46.982;15.248;2023-05-07T07:32:25;97299.72;;;19.79;100.00
13867;BME280;7003;46.982;15.248;2023-05-07T07:34:59;97307.16;;;20.24;100.00
13867;BME280;7003;46.982;15.248;2023-05-07T07:37:28;97304.50;;;20.63;100.00
13867;BME280;7003;46.982;15.248;2023-05-07T07:39:58;97302.94;;;20.80;100.00
13867;BME280;7003;46.982;15.248;2023-05-07T07:42:25;97300.63;;;20.89;100.00
13867;BME280;7003;46.982;15.248;2023-05-07T07:44:56;97296.72;;;20.19;100.00
13867;BME280;7003;46.982;15.248;2023-05-07T07:47:25;97301.19;;;19.58;100.00
13867;BME280;7003;46.982;15.248;2023-05-07T07:49:53;97290.94;;;19.16;100.00
13867;BME280;7003;46.982;15.248;2023-05-07T07:52:22;97295.09;;;19.83;100.00
13867;BME280;7003;46.982;15.248;2023-05-07T07:54:52;97290.56;;;20.29;100.00
13867;BME280;7003;46.982;15.248;2023-05-07T07:57:20;97294.03;;;20.83;100.00
13867;BME280;7003;46.982;15.248;2023-05-07T07:59:49;97285.47;;;21.31;100.00
13867;BME280;7003;46.982;15.248;2023-05-07T08:02:19;97287.44;;;21.23;100.00
13867;BME280;7003;46.982;15.248;2023-05-07T08:04:48;97287.47;;;21.20;100.00
13867;BME280;7003;46.982;15.248;2023-05-07T08:07:15;97290.47;;;21.43;100.00
13867;BME280;7003;46.982;15.248;2023-05-07T08:09:48;97284.53;;;21.73;100.00
13867;BME280;7003;46.982;15.248;2023-05-07T08:12:16;97295.56;;;20.31;100.00
13867;BME280;7003;46.982;15.248;2023-05-07T08:14:44;97292.53;;;20.82;100.00
13867;BME280;7003;46.982;15.248;2023-05-07T08:17:11;97293.28;;;20.97;100.00
13867;BME280;7003;46.982;15.248;2023-05-07T08:19:42;97291.25;;;21.43;100.00
13867;BME280;7003;46.982;15.248;2023-05-07T08:22:12;97291.03;;;21.97;100.00
13867;BME280;7003;46.982;15.248;2023-05-07T08:24:42;97287.47;;;22.07;100.00
13867;BME280;7003;46.982;15.248;2023-05-07T08:27:11;97286.91;;;22.33;100.00
13867;BME280;7003;46.982;15.248;2023-05-07T08:29:41;97278.47;;;22.76;100.00
13867;BME280;7003;46.982;15.248;2023-05-07T08:32:15;97278.81;;;22.81;98.17
13867;BME280;7003;46.982;15.248;2023-05-07T08:34:43;97276.91;;;22.23;97.40
13867;BME280;7003;46.982;15.248;2023-05-07T08:37:13;97280.59;;;21.88;100.00
13867;BME280;7003;46.982;15.248;2023-05-07T08:39:40;97280.66;;;22.43;98.41
13867;BME280;7003;46.982;15.248;2023-05-07T08:42:11;97279.44;;;22.96;92.72
13867;BME280;7003;46.982;15.248;2023-05-07T08:44:41;97279.81;;;22.50;94.47
13867;BME280;7003;46.982;15.248;2023-05-07T08:47:11;97278.59;;;23.02;94.80
13867;BME280;7003;46.982;15.248;2023-05-07T08:49:42;97276.13;;;23.15;94.21
13867;BME280;7003;46.982;15.248;2023-05-07T08:52:11;97275.81;;;23.44;86.12
13867;BME280;7003;46.982;15.248;2023-05-07T08:54:40;97274.81;;;23.30;84.84
13867;BME280;7003;46.982;15.248;2023-05-07T08:57:11;97264.63;;;23.72;86.80
13867;BME280;7003;46.982;15.248;2023-05-07T08:59:40;97263.09;;;23.71;85.30
13867;BME280;7003;46.982;15.248;2023-05-07T09:02:11;97269.22;;;23.45;82.97
13867;BME280;7003;46.982;15.248;2023-05-07T09:04:39;97276.91;;;22.26;87.00
13867;BME280;7003;46.982;15.248;2023-05-07T09:07:07;97268.94;;;21.95;87.05
13867;BME280;7003;46.982;15.248;2023-05-07T09:09:35;97269.22;;;22.18;94.75
13867;BME280;7003;46.982;15.248;2023-05-07T09:12:05;97268.38;;;22.28;94.63
13867;BME280;7003;46.982;15.248;2023-05-07T09:14:34;97270.00;;;22.18;94.41
13867;BME280;7003;46.982;15.248;2023-05-07T09:17:05;97268.41;;;22.24;91.53
13867;BME280;7003;46.982;15.248;2023-05-07T09:19:32;97264.09;;;22.31;90.73
13867;BME280;7003;46.982;15.248;2023-05-07T09:22:00;97264.59;;;22.15;90.83
13867;BME280;7003;46.982;15.248;2023-05-07T09:24:31;97263.81;;;22.18;85.76
13867;BME280;7003;46.982;15.248;2023-05-07T09:27:02;97274.09;;;21.71;94.02
13867;BME280;7003;46.982;15.248;2023-05-07T09:29:31;97273.53;;;22.12;94.97
13867;BME280;7003;46.982;15.248;2023-05-07T09:32:06;97268.50;;;22.14;85.52
13867;BME280;7003;46.982;15.248;2023-05-07T09:34:36;97269.06;;;22.39;94.35
13867;BME280;7003;46.982;15.248;2023-05-07T09:37:05;97273.94;;;22.58;83.68
13867;BME280;7003;46.982;15.248;2023-05-07T09:39:40;97265.22;;;22.37;89.59
13867;BME280;7003;46.982;15.248;2023-05-07T09:42:08;97273.97;;;22.03;98.06
13867;BME280;7003;46.982;15.248;2023-05-07T09:44:39;97279.41;;;21.96;97.30
13867;BME280;7003;46.982;15.248;2023-05-07T09:47:10;97275.53;;;21.94;94.11
13867;BME280;7003;46.982;15.248;2023-05-07T09:49:39;97269.50;;;21.61;100.00
13867;BME280;7003;46.982;15.248;2023-05-07T09:52:11;97267.16;;;21.70;88.93
13867;BME280;7003;46.982;15.248;2023-05-07T09:54:43;97267.06;;;21.84;89.33
13867;BME280;7003;46.982;15.248;2023-05-07T09:57:15;97262.72;;;22.60;82.55
13867;BME280;7003;46.982;15.248;2023-05-07T09:59:43;97264.59;;;23.41;84.25
13867;BME280;7003;46.982;15.248;2023-05-07T10:02:14;97264.44;;;23.86;82.59
13867;BME280;7003;46.982;15.248;2023-05-07T10:04:43;97268.59;;;22.96;79.06
13867;BME280;7003;46.982;15.248;2023-05-07T10:07:14;97252.47;;;22.82;84.17
13867;BME280;7003;46.982;15.248;2023-05-07T10:09:45;97266.72;;;23.23;85.23
13867;BME280;7003;46.982;15.248;2023-05-07T10:12:13;97267.19;;;22.81;82.17
13867;BME280;7003;46.982;15.248;2023-05-07T10:14:43;97262.09;;;22.38;89.18
13867;BME280;7003;46.982;15.248;2023-05-07T10:17:16;97269.53;;;21.54;85.08
13867;BME280;7003;46.982;15.248;2023-05-07T10:19:44;97261.19;;;22.04;94.70
13867;BME280;7003;46.982;15.248;2023-05-07T10:22:15;97262.72;;;22.56;92.24
13867;BME280;7003;46.982;15.248;2023-05-07T10:24:48;97257.53;;;23.48;84.11
13867;BME280;7003;46.982;15.248;2023-05-07T10:27:20;97245.88;;;23.81;80.06
13867;BME280;7003;46.982;15.248;2023-05-07T10:29:53;97249.13;;;23.99;82.37
13867;BME280;7003;46.982;15.248;2023-05-07T10:32:42;97240.81;;;24.37;74.03
13867;BME280;7003;46.982;15.248;2023-05-07T10:35:17;97240.06;;;25.03;78.87
13867;BME280;7003;46.982;15.248;2023-05-07T10:37:45;97248.25;;;24.56;74.53
13867;BME280;7003;46.982;15.248;2023-05-07T10:40:16;97234.50;;;24.86;74.33
13867;BME280;7003;46.982;15.248;2023-05-07T10:42:55;97240.44;;;24.81;70.29
13867;BME280;7003;46.982;15.248;2023-05-07T10:45:24;97241.38;;;22.62;76.37
13867;BME280;7003;46.982;15.248;2023-05-07T10:48:10;97249.72;;;23.23;82.12
13867;BME280;7003;46.982;15.248;2023-05-07T10:50:42;97246.69;;;23.78;86.15
13867;BME280;7003;46.982;15.248;2023-05-07T10:53:25;97240.38;;;23.58;77.03
13867;BME280;7003;46.982;15.248;2023-05-07T10:56:25;97242.38;;;23.54;81.86
13867;BME280;7003;46.982;15.248;2023-05-07T10:59:34;97237.25;;;23.86;71.46
13867;BME280;7003;46.982;15.248;2023-05-07T11:02:07;97235.78;;;24.35;70.00
13867;BME280;7003;46.982;15.248;2023-05-07T11:04:38;97237.06;;;23.39;74.77
13867;BME280;7003;46.982;15.248;2023-05-07T11:07:29;97235.81;;;23.48;78.27
13867;BME280;7003;46.982;15.248;2023-05-07T11:10:05;97241.47;;;23.64;76.34
13867;BME280;7003;46.982;15.248;2023-05-07T11:12:52;97232.06;;;22.22;78.35
13867;BME280;7003;46.982;15.248;2023-05-07T11:15:43;97236.56;;;22.36;90.50
13867;BME280;7003;46.982;15.248;2023-05-07T11:18:12;97236.19;;;22.82;82.35
13867;BME280;7003;46.982;15.248;2023-05-07T11:20:50;97233.94;;;22.70;84.16
13867;BME280;7003;46.982;15.248;2023-05-07T11:26:31;97222.28;;;24.01;80.43
13867;BME280;7003;46.982;15.248;2023-05-07T11:29:11;97225.19;;;24.41;73.01
13867;BME280;7003;46.982;15.248;2023-05-07T11:31:41;97223.69;;;23.59;79.94
13867;BME280;7003;46.982;15.248;2023-05-07T11:34:10;97229.03;;;23.66;81.73
13867;BME280;7003;46.982;15.248;2023-05-07T11:36:43;97229.69;;;23.74;76.67
13867;BME280;7003;46.982;15.248;2023-05-07T11:39:28;97219.94;;;23.50;79.13
13867;BME280;7003;46.982;15.248;2023-05-07T11:41:56;97219.94;;;23.50;83.74
13867;BME280;7003;46.982;15.248;2023-05-07T11:44:24;97218.59;;;23.92;75.98
13867;BME280;7003;46.982;15.248;2023-05-07T11:46:54;97203.78;;;22.68;78.92
13867;BME280;7003;46.982;15.248;2023-05-07T11:49:25;97213.97;;;22.05;83.67
13867;BME280;7003;46.982;15.248;2023-05-07T11:51:56;97207.00;;;22.52;90.18
13867;BME280;7003;46.982;15.248;2023-05-07T11:54:24;97204.19;;;23.34;83.32
13867;BME280;7003;46.982;15.248;2023-05-07T11:56:52;97209.84;;;22.82;80.85
13867;BME280;7003;46.982;15.248;2023-05-07T11:59:24;97207.28;;;22.20;87.03
13867;BME280;7003;46.982;15.248;2023-05-07T12:01:52;97208.56;;;22.49;91.68
13867;BME280;7003;46.982;15.248;2023-05-07T12:04:20;97216.28;;;22.95;80.48
13867;BME280;7003;46.982;15.248;2023-05-07T12:06:48;97205.50;;;21.99;84.99
13867;BME280;7003;46.982;15.248;2023-05-07T12:09:18;97211.22;;;22.08;100.00
13867;BME280;7003;46.982;15.248;2023-05-07T12:11:46;97205.69;;;22.22;84.65
13867;BME280;7003;46.982;15.248;2023-05-07T12:14:14;97200.25;;;22.26;86.65
13867;BME280;7003;46.982;15.248;2023-05-07T12:16:45;97208.38;;;22.30;85.94
13867;BME280;7003;46.982;15.248;2023-05-07T12:19:17;97209.94;;;22.27;88.96
13867;BME280;7003;46.982;15.248;2023-05-07T12:21:44;97203.66;;;21.82;89.21
13867;BME280;7003;46.982;15.248;2023-05-07T12:24:14;97213.94;;;22.12;96.33
13867;BME280;7003;46.982;15.248;2023-05-07T12:26:43;97212.44;;;22.00;96.14
13867;BME280;7003;46.982;15.248;2023-05-07T12:29:11;97206.63;;;22.02;88.28
13867;BME280;7003;46.982;15.248;2023-05-07T12:31:41;97207.88;;;22.38;90.00
13867;BME280;7003;46.982;15.248;2023-05-07T12:34:13;97201.75;;;22.31;90.96
13867;BME280;7003;46.982;15.248;2023-05-07T12:36:41;97199.94;;;22.17;89.58
13867;BME280;7003;46.982;15.248;2023-05-07T12:39:12;97203.78;;;22.68;85.36
13867;BME280;7003;46.982;15.248;2023-05-07T12:41:54;97200.78;;;22.10;89.16
13867;BME280;7003;46.982;15.248;2023-05-07T12:44:22;97206.13;;;21.55;89.61
13867;BME280;7003;46.982;15.248;2023-05-07T12:46:51;97198.50;;;21.32;87.67
13867;BME280;7003;46.982;15.248;2023-05-07T12:49:19;97206.28;;;21.27;88.69
13867;BME280;7003;46.982;15.248;2023-05-07T12:51:47;97214.16;;;20.75;100.00
13867;BME280;7003;46.982;15.248;2023-05-07T12:54:28;97210.91;;;21.16;96.86
13867;BME280;7003;46.982;15.248;2023-05-07T12:57:02;97212.84;;;21.22;90.64
13867;BME280;7003;46.982;15.248;2023-05-07T12:59:33;97205.16;;;21.21;94.88
13867;BME280;7003;46.982;15.248;2023-05-07T13:02:04;97215.59;;;21.04;90.61
13867;BME280;7003;46.982;15.248;2023-05-07T13:04:35;97206.28;;;21.27;92.42
13867;BME280;7003;46.982;15.248;2023-05-07T13:07:03;97209.72;;;21.31;92.67
13867;BME280;7003;46.982;15.248;2023-05-07T13:09:33;97207.81;;;21.28;92.78
13867;BME280;7003;46.982;15.248;2023-05-07T13:12:04;97213.69;;;21.01;94.66